createdAt,value
2018-11-20T00:02:48.561Z,102425.77
2018-11-20T00:05:35.983Z,102429.63
2018-11-20T00:08:23.437Z,102429.63
2018-11-20T00:11:30.286Z,102421.14
2018-11-20T00:14:17.736Z,102421.14
2018-11-20T00:17:05.210Z,102421.14
2018-11-20T00:19:52.641Z,102422.11
2018-11-20T00:22:59.521Z,102410.47
2018-11-20T00:25:46.954Z,102410.47
2018-11-20T00:28:34.410Z,102409.27
2018-11-20T00:31:32.855Z,102405.64
2018-11-20T00:34:39.743Z,102404.23
2018-11-20T00:37:38.361Z,102401.67
2018-11-20T00:40:26.033Z,102401.67
2018-11-20T00:43:13.493Z,102398.41
2018-11-20T00:46:20.350Z,102392.79
2018-11-20T00:49:07.805Z,102399.22
2018-11-20T00:51:55.224Z,102395.64
2018-11-20T00:54:42.692Z,102386.92
2018-11-20T00:57:30.108Z,102386.92
2018-11-20T01:00:36.990Z,102386.84
2018-11-20T01:03:24.416Z,102386.84
2018-11-20T01:06:31.299Z,102374.58
2018-11-20T01:12:42.832Z,102378.20
2018-11-20T01:15:30.305Z,102378.20
2018-11-20T01:18:17.731Z,102369.19
2018-11-20T01:21:05.185Z,102368.67
2018-11-20T01:23:52.614Z,102358.16
2018-11-20T01:26:40.063Z,102365.95
2018-11-20T01:29:27.497Z,102374.73
2018-11-20T01:32:14.944Z,102367.00
2018-11-20T01:35:02.383Z,102367.47
2018-11-20T01:37:49.835Z,102363.30
2018-11-20T01:40:37.264Z,102353.00
2018-11-20T01:43:24.728Z,102355.27
2018-11-20T01:46:12.156Z,102354.06
2018-11-20T01:48:59.604Z,102345.53
2018-11-20T01:51:47.047Z,102347.89
2018-11-20T01:54:34.505Z,102338.10
2018-11-20T01:57:21.942Z,102339.55
2018-11-20T02:00:17.049Z,102334.20
2018-11-20T02:03:04.507Z,102345.94
2018-11-20T02:05:41.940Z,102332.39
2018-11-20T02:08:29.397Z,102326.66
2018-11-20T02:11:16.830Z,102327.73
2018-11-20T02:14:43.078Z,102329.78
2018-11-20T02:17:33.819Z,102334.70
2018-11-20T02:20:21.276Z,102320.66
2018-11-20T02:23:08.704Z,102330.44
2018-11-20T02:25:56.165Z,102321.25
2018-11-20T02:28:43.601Z,102328.70
2018-11-20T02:31:31.067Z,102323.84
2018-11-20T02:34:19.610Z,102332.61
2018-11-20T02:37:07.078Z,102326.11
2018-11-20T02:39:54.531Z,102315.53
2018-11-20T02:42:41.962Z,102311.96
2018-11-20T02:45:29.418Z,102310.95
2018-11-20T02:48:16.855Z,102302.66
2018-11-20T02:51:04.324Z,102303.84
2018-11-20T02:53:51.748Z,102316.14
2018-11-20T02:56:39.203Z,102300.95
2018-11-20T02:59:26.637Z,102300.95
2018-11-20T03:02:14.102Z,102294.70
2018-11-20T03:05:01.550Z,102297.66
2018-11-20T03:07:49.010Z,102297.45
2018-11-20T03:10:36.459Z,102294.00
2018-11-20T03:13:24.105Z,102288.63
2018-11-20T03:16:11.577Z,102287.75
2018-11-20T03:18:59.008Z,102291.11
2018-11-20T03:21:46.480Z,102292.78
2018-11-20T03:24:33.909Z,102284.18
2018-11-20T03:27:21.371Z,102284.58
2018-11-20T03:30:47.574Z,102279.18
2018-11-20T03:33:35.035Z,102277.11
2018-11-20T03:36:22.474Z,102278.11
2018-11-20T03:39:09.922Z,102276.95
2018-11-20T03:41:57.356Z,102276.67
2018-11-20T03:44:44.818Z,102271.64
2018-11-20T03:47:32.290Z,102261.39
2018-11-20T03:50:19.716Z,102262.67
2018-11-20T03:53:07.174Z,102260.63
2018-11-20T03:55:54.603Z,102260.63
2018-11-20T03:58:42.195Z,102254.23
2018-11-20T04:01:29.628Z,102253.70
2018-11-20T04:04:17.071Z,102253.31
2018-11-20T04:07:04.511Z,102254.23
2018-11-20T04:09:51.961Z,102251.39
2018-11-20T04:12:39.811Z,102241.75
2018-11-20T04:15:27.261Z,102233.75
2018-11-20T04:18:14.693Z,102215.53
2018-11-20T04:21:02.155Z,102214.09
2018-11-20T04:26:39.224Z,102204.25
2018-11-20T04:29:26.648Z,102200.52
2018-11-20T04:32:34.421Z,102193.44
2018-11-20T04:35:22.757Z,102196.69
2018-11-20T04:38:10.183Z,102204.02
2018-11-20T04:40:57.640Z,102198.09
2018-11-20T04:43:45.068Z,102186.95
2018-11-20T04:46:32.776Z,102195.69
2018-11-20T04:49:20.209Z,102186.42
2018-11-20T04:52:07.674Z,102194.28
2018-11-20T04:54:55.103Z,102194.88
2018-11-20T04:57:42.588Z,102189.14
2018-11-20T05:00:29.979Z,102194.14
2018-11-20T05:03:17.452Z,102187.62
2018-11-20T05:09:16.879Z,102189.23
2018-11-20T05:12:04.313Z,102196.75
2018-11-20T05:14:51.778Z,102183.95
2018-11-20T05:17:28.996Z,102191.67
2018-11-20T05:20:16.461Z,102187.64
2018-11-20T05:23:03.888Z,102192.69
2018-11-20T05:25:51.357Z,102186.88
2018-11-20T05:28:58.237Z,102186.11
2018-11-20T05:31:45.740Z,102186.11
2018-11-20T05:34:33.200Z,102190.64
2018-11-20T05:37:20.645Z,102190.76
2018-11-20T05:39:55.817Z,102184.62
2018-11-20T05:42:43.245Z,102187.71
2018-11-20T05:45:30.699Z,102194.61
2018-11-20T05:48:18.142Z,102191.24
2018-11-20T05:51:05.606Z,102184.55
2018-11-20T05:53:53.051Z,102188.63
2018-11-20T05:56:40.508Z,102184.98
2018-11-20T06:02:33.189Z,102182.05
2018-11-20T06:05:20.635Z,102184.81
2018-11-20T06:08:10.574Z,102188.86
2018-11-20T06:10:58.022Z,102186.89
2018-11-20T06:13:45.451Z,102192.13
2018-11-20T06:16:32.913Z,102190.45
2018-11-20T06:19:20.351Z,102195.18
2018-11-20T06:22:07.805Z,102195.06
2018-11-20T06:24:55.234Z,102196.55
2018-11-20T06:27:42.697Z,102197.92
2018-11-20T06:30:30.127Z,102203.73
2018-11-20T06:33:17.584Z,102197.13
2018-11-20T06:36:05.015Z,102201.73
2018-11-20T06:38:52.471Z,102193.16
2018-11-20T06:41:39.917Z,102196.61
2018-11-20T06:44:16.447Z,102201.25
2018-11-20T06:47:03.969Z,102200.77
2018-11-20T06:49:51.362Z,102197.00
2018-11-20T06:52:38.826Z,102200.97
2018-11-20T06:55:26.274Z,102202.73
2018-11-20T06:58:13.728Z,102203.33
2018-11-20T07:01:01.166Z,102197.03
2018-11-20T07:03:48.626Z,102199.68
2018-11-20T07:06:36.058Z,102200.80
2018-11-20T07:09:24.398Z,102193.98
2018-11-20T07:12:11.826Z,102200.51
2018-11-20T07:14:59.309Z,102210.60
2018-11-20T07:17:46.727Z,102199.66
2018-11-20T07:20:34.190Z,102207.06
2018-11-20T07:23:21.624Z,102206.66
2018-11-20T07:26:09.083Z,102206.74
2018-11-20T07:28:56.506Z,102210.70
2018-11-20T07:31:44.013Z,102218.12
2018-11-20T07:34:50.876Z,102217.44
2018-11-20T07:37:38.278Z,102217.44
2018-11-20T07:40:26.246Z,102220.67
2018-11-20T07:43:13.711Z,102222.27
2018-11-20T07:46:01.154Z,102209.66
2018-11-20T07:51:38.255Z,102201.88
2018-11-20T07:54:25.650Z,102206.80
2018-11-20T07:57:13.100Z,102205.31
2018-11-20T08:00:00.532Z,102198.59
2018-11-20T08:02:47.981Z,102206.89
2018-11-20T08:05:54.838Z,102200.89
2018-11-20T08:08:42.427Z,102200.89
2018-11-20T08:11:29.729Z,102194.55
2018-11-20T08:14:17.188Z,102191.22
2018-11-20T08:17:04.675Z,102186.67
2018-11-20T08:19:51.408Z,102176.19
2018-11-20T08:22:58.288Z,102183.59
2018-11-20T08:25:45.792Z,102183.59
2018-11-20T08:28:41.731Z,102193.97
2018-11-20T08:31:29.122Z,102193.97
2018-11-20T08:37:16.470Z,102191.89
2018-11-20T08:40:03.894Z,102191.89
2018-11-20T08:42:51.373Z,102200.67
2018-11-20T08:45:58.240Z,102190.63
2018-11-20T08:49:05.123Z,102178.26
2018-11-20T08:51:52.556Z,102178.26
2018-11-20T08:54:59.432Z,102161.45
2018-11-20T08:57:46.873Z,102161.45
2018-11-20T09:00:34.335Z,102168.47
2018-11-20T09:03:41.190Z,102153.86
2018-11-20T09:06:28.643Z,102153.86
2018-11-20T09:09:35.526Z,102155.33
2018-11-20T09:15:31.030Z,102154.05
2018-11-20T09:18:18.476Z,102154.05
2018-11-20T09:21:05.976Z,102154.16
2018-11-20T09:24:12.826Z,102140.21
2018-11-20T09:27:19.708Z,102144.95
2018-11-20T09:30:07.171Z,102144.95
2018-11-20T09:32:54.598Z,102137.64
2018-11-20T09:35:42.174Z,102141.90
2018-11-20T09:38:18.188Z,102126.30
2018-11-20T09:41:09.513Z,102127.66
2018-11-20T09:44:18.137Z,102127.66
2018-11-20T09:47:05.651Z,102130.45
2018-11-20T09:49:53.162Z,102129.34
2018-11-20T09:52:40.715Z,102117.68
2018-11-20T09:55:29.562Z,102117.68
2018-11-20T09:58:17.028Z,102120.76
2018-11-20T10:01:04.461Z,102113.24
2018-11-20T10:03:59.365Z,102117.09
2018-11-20T10:06:46.805Z,102109.68
2018-11-20T10:09:34.250Z,102097.87
2018-11-20T10:12:21.678Z,102097.87
2018-11-20T10:15:28.562Z,102088.66
2018-11-20T10:18:35.414Z,102096.77
2018-11-20T10:21:22.968Z,102091.00
2018-11-20T10:26:58.959Z,102089.42
2018-11-20T10:30:05.856Z,102078.27
2018-11-20T10:33:12.731Z,102075.41
2018-11-20T10:36:19.620Z,102081.90
2018-11-20T10:39:27.959Z,102082.41
2018-11-20T10:42:34.835Z,102085.05
2018-11-20T10:45:35.580Z,102080.90
2018-11-20T10:48:22.932Z,102080.90
2018-11-20T10:51:10.430Z,102069.97
2018-11-20T10:53:57.818Z,102060.86
2018-11-20T10:56:45.285Z,102033.09
2018-11-20T11:05:49.659Z,102032.78
2018-11-20T11:08:37.270Z,102024.77
2018-11-20T11:11:25.160Z,102024.95
2018-11-20T11:14:12.553Z,102017.23
2018-11-20T11:16:59.994Z,102009.30
2018-11-20T11:19:47.453Z,102009.30
2018-11-20T11:22:34.887Z,102004.67
2018-11-20T11:25:22.343Z,102005.32
2018-11-20T11:28:09.790Z,101999.98
2018-11-20T11:30:57.243Z,102005.30
2018-11-20T11:34:04.119Z,102001.03
2018-11-20T11:36:51.569Z,102001.03
2018-11-20T11:39:58.453Z,101994.20
2018-11-20T11:42:45.884Z,101994.20
2018-11-20T11:45:33.341Z,101996.07
2018-11-20T11:48:20.777Z,101988.77
2018-11-20T11:51:08.233Z,101992.62
2018-11-20T11:54:15.109Z,101982.91
2018-11-20T11:57:02.553Z,101982.91
2018-11-20T11:59:49.973Z,101982.14
2018-11-20T12:05:24.259Z,101982.52
2018-11-20T12:08:11.720Z,101970.00
2018-11-20T12:10:59.148Z,101972.33
2018-11-20T12:13:46.598Z,101983.02
2018-11-20T12:16:34.055Z,101972.16
2018-11-20T12:19:21.486Z,101972.56
2018-11-20T12:22:08.941Z,101977.88
2018-11-20T12:24:56.362Z,101968.38
2018-11-20T12:27:43.822Z,101983.02
2018-11-20T12:30:32.675Z,101970.06
2018-11-20T12:33:18.703Z,101963.64
2018-11-20T12:36:06.138Z,101969.77
2018-11-20T12:38:53.592Z,101963.81
2018-11-20T12:41:41.020Z,101968.17
2018-11-20T12:44:28.480Z,101965.91
2018-11-20T12:50:21.077Z,101969.77
2018-11-20T12:53:08.558Z,101965.63
2018-11-20T12:55:55.988Z,101978.01
2018-11-20T12:58:43.444Z,101974.05
2018-11-20T13:01:30.871Z,101963.42
2018-11-20T13:04:37.747Z,101971.91
2018-11-20T13:07:25.514Z,101972.83
2018-11-20T13:10:12.971Z,101972.83
2018-11-20T13:13:00.659Z,101963.42
2018-11-20T13:15:49.441Z,101963.73
2018-11-20T13:18:35.291Z,101958.02
2018-11-20T13:21:22.753Z,101950.71
2018-11-20T13:24:11.955Z,101951.89
2018-11-20T13:26:57.995Z,101952.70
2018-11-20T13:29:45.450Z,101952.59
2018-11-20T13:32:32.900Z,101944.62
2018-11-20T13:35:20.350Z,101943.91
2018-11-20T13:38:29.324Z,101946.78
2018-11-20T13:41:42.324Z,101946.78
2018-11-20T13:44:51.965Z,101937.14
2018-11-20T13:47:37.789Z,101937.14
2018-11-20T13:50:44.671Z,101929.33
2018-11-20T13:53:32.109Z,101929.33
2018-11-20T13:56:19.571Z,101910.94
2018-11-20T13:59:26.431Z,101909.99
2018-11-20T14:02:33.315Z,101899.52
2018-11-20T14:05:40.170Z,101911.88
2018-11-20T14:08:47.073Z,101898.59
2018-11-20T14:11:36.515Z,101898.59
2018-11-20T14:14:21.987Z,101904.78
2018-11-20T14:17:09.428Z,101891.19
2018-11-20T14:20:16.306Z,101891.80
2018-11-20T14:23:23.239Z,101894.36
2018-11-20T14:26:30.096Z,101889.69
2018-11-20T14:29:17.557Z,101889.69
2018-11-20T14:32:05.015Z,101893.61
2018-11-20T14:34:44.712Z,101888.41
2018-11-20T14:37:51.594Z,101885.16
2018-11-20T14:41:01.051Z,101881.88
2018-11-20T14:43:45.923Z,101876.74
2018-11-20T14:46:52.785Z,101870.73
2018-11-20T14:49:41.012Z,101870.73
2018-11-20T14:52:27.700Z,101878.50
2018-11-20T14:55:15.130Z,101875.28
2018-11-20T14:58:02.771Z,101860.31
2018-11-20T15:00:50.104Z,101859.63
2018-11-20T15:03:37.576Z,101860.56
2018-11-20T15:06:25.003Z,101862.27
2018-11-20T15:09:12.456Z,101843.97
2018-11-20T15:11:59.884Z,101849.70
2018-11-20T15:14:47.337Z,101845.38
2018-11-20T15:17:34.773Z,101842.86
2018-11-20T15:20:22.239Z,101857.05
2018-11-20T15:23:09.669Z,101845.56
2018-11-20T15:26:03.864Z,101841.31
2018-11-20T15:28:44.557Z,101848.75
2018-11-20T15:31:32.020Z,101845.90
2018-11-20T15:34:19.464Z,101849.53
2018-11-20T15:37:06.927Z,101844.14
2018-11-20T15:39:54.352Z,101839.60
2018-11-20T15:42:41.822Z,101844.14
2018-11-20T15:45:29.254Z,101834.88
2018-11-20T15:48:16.723Z,101834.22
2018-11-20T15:54:16.625Z,101836.27
2018-11-20T15:57:04.075Z,101844.17
2018-11-20T15:59:56.017Z,101837.87
2018-11-20T16:02:38.947Z,101834.61
2018-11-20T16:05:26.591Z,101837.86
2018-11-20T16:08:14.048Z,101844.08
2018-11-20T16:11:01.477Z,101839.64
2018-11-20T16:13:48.938Z,101840.05
2018-11-20T16:16:36.366Z,101833.93
2018-11-20T16:19:24.170Z,101837.30
2018-11-20T16:22:11.600Z,101834.03
2018-11-20T16:24:59.056Z,101836.00
2018-11-20T16:27:46.484Z,101831.97
2018-11-20T16:30:33.935Z,101835.70
2018-11-20T16:33:21.413Z,101856.12
2018-11-20T16:36:08.843Z,101871.38
2018-11-20T16:38:56.301Z,101893.03
2018-11-20T16:41:43.723Z,101897.95
2018-11-20T16:44:31.996Z,101897.48
2018-11-20T16:47:19.426Z,101902.88
2018-11-20T16:50:06.887Z,101903.28
2018-11-20T16:52:54.329Z,101899.81
2018-11-20T16:55:41.788Z,101894.61
2018-11-20T16:58:29.217Z,101888.48
2018-11-20T17:01:16.668Z,101885.05
2018-11-20T17:04:04.124Z,101894.19
2018-11-20T17:06:51.553Z,101888.47
2018-11-20T17:09:39.003Z,101897.75
2018-11-20T17:12:26.440Z,101900.19
2018-11-20T17:15:13.896Z,101904.43
2018-11-20T17:18:01.320Z,101905.52
2018-11-20T17:20:48.784Z,101907.08
2018-11-20T17:23:36.206Z,101909.92
2018-11-20T17:26:23.661Z,101898.69
2018-11-20T17:29:11.090Z,101902.81
2018-11-20T17:31:58.534Z,101887.66
2018-11-20T17:34:45.957Z,101900.45
2018-11-20T17:37:33.413Z,101891.66
2018-11-20T17:40:21.149Z,101902.70
2018-11-20T17:43:08.306Z,101902.09
2018-11-20T17:45:55.731Z,101912.73
2018-11-20T17:48:43.186Z,101912.90
2018-11-20T17:51:30.640Z,101913.30
2018-11-20T17:54:18.068Z,101916.25
2018-11-20T17:57:24.949Z,101918.81
2018-11-20T18:00:12.381Z,101918.22
2018-11-20T18:03:02.009Z,101925.02
2018-11-20T18:05:49.432Z,101928.25
2018-11-20T18:08:36.896Z,101936.41
2018-11-20T18:11:25.065Z,101957.48
2018-11-20T18:14:12.523Z,101945.97
2018-11-20T18:16:59.960Z,101950.33
2018-11-20T18:19:47.405Z,101953.17
2018-11-20T18:22:35.228Z,101955.84
2018-11-20T18:25:22.685Z,101954.77
2018-11-20T18:28:10.122Z,101953.69
2018-11-20T18:30:57.572Z,101959.92
2018-11-20T18:33:45.039Z,101958.08
2018-11-20T18:36:32.467Z,101961.72
2018-11-20T18:39:19.942Z,101955.05
2018-11-20T18:42:07.385Z,101957.91
2018-11-20T18:44:54.885Z,101961.55
2018-11-20T18:47:42.272Z,101967.39
2018-11-20T18:50:29.724Z,101967.59
2018-11-20T18:53:17.154Z,101965.52
2018-11-20T18:56:04.616Z,101965.34
2018-11-20T18:58:52.046Z,101967.70
2018-11-20T19:01:39.512Z,101971.74
2018-11-20T19:04:26.942Z,101979.14
2018-11-20T19:07:14.393Z,101981.82
2018-11-20T19:10:01.848Z,101982.02
2018-11-20T19:12:49.282Z,101981.22
2018-11-20T19:15:36.741Z,101973.17
2018-11-20T19:18:24.168Z,101975.73
2018-11-20T19:21:11.624Z,101975.41
2018-11-20T19:23:59.081Z,101981.33
2018-11-20T19:26:46.517Z,101984.77
2018-11-20T19:29:33.960Z,101980.93
2018-11-20T19:32:21.414Z,101982.22
2018-11-20T19:35:08.844Z,101993.86
2018-11-20T19:37:56.297Z,101986.66
2018-11-20T19:40:43.777Z,101981.12
2018-11-20T19:43:31.206Z,101985.89
2018-11-20T19:46:18.682Z,101978.56
2018-11-20T19:49:06.150Z,101972.16
2018-11-20T19:52:00.829Z,101969.72
2018-11-20T19:54:41.029Z,101973.95
2018-11-20T19:57:28.495Z,101974.72
2018-11-20T20:00:15.936Z,101978.20
2018-11-20T20:03:03.531Z,101973.16
2018-11-20T20:05:50.956Z,101974.04
2018-11-20T20:11:29.569Z,101969.43
2018-11-20T20:14:17.025Z,101973.27
2018-11-20T20:17:04.461Z,101982.36
2018-11-20T20:19:51.917Z,101973.38
2018-11-20T20:22:39.389Z,101976.03
2018-11-20T20:25:26.943Z,101982.15
2018-11-20T20:28:14.403Z,101984.83
2018-11-20T20:32:58.889Z,101989.94
2018-11-20T20:35:45.261Z,102002.55
2018-11-20T20:38:31.574Z,101999.59
2018-11-20T20:41:32.137Z,101996.55
2018-11-20T20:44:18.779Z,101998.72
2018-11-20T20:47:04.926Z,102003.55
2018-11-20T20:49:49.607Z,101993.90
2018-11-20T20:52:44.272Z,101996.94
2018-11-20T20:55:31.757Z,102001.66
2018-11-20T20:58:07.567Z,102006.02
2018-11-20T21:00:53.705Z,102006.50
2018-11-20T21:03:41.161Z,102002.27
2018-11-20T21:06:37.893Z,102002.27
2018-11-20T21:09:26.478Z,102009.58
2018-11-20T21:12:19.548Z,102013.51
2018-11-20T21:15:02.869Z,102013.51
2018-11-20T21:17:50.345Z,102009.19
2018-11-20T21:20:46.845Z,102009.66
2018-11-20T21:23:37.092Z,102007.10
2018-11-20T21:26:24.553Z,102012.15
2018-11-20T21:29:14.992Z,102017.75
2018-11-20T21:32:17.612Z,102014.31
2018-11-20T21:35:03.873Z,102007.02
2018-11-20T21:38:00.597Z,102016.47
2018-11-20T21:41:00.331Z,102014.20
2018-11-20T21:43:50.519Z,102010.34
2018-11-20T21:46:49.968Z,102010.34
2018-11-20T21:49:42.364Z,102008.59
2018-11-20T21:52:38.059Z,102003.75
2018-11-20T21:55:24.913Z,102009.27
2018-11-20T21:58:15.702Z,102004.91
2018-11-20T22:01:11.624Z,102005.31
2018-11-20T22:03:58.236Z,102025.05
2018-11-20T22:06:44.296Z,102019.01
2018-11-20T22:09:34.687Z,102018.05
2018-11-20T22:12:21.270Z,102022.66
2018-11-20T22:15:07.418Z,102013.97
2018-11-20T22:17:53.892Z,102022.86
2018-11-20T22:20:39.906Z,102024.91
2018-11-20T22:23:30.101Z,102030.34
2018-11-20T22:26:06.759Z,102026.79
2018-11-20T22:29:09.633Z,102029.64
2018-11-20T22:32:15.259Z,102032.00
2018-11-20T22:35:04.896Z,102029.72
2018-11-20T22:37:49.029Z,102027.73
2018-11-20T22:40:45.448Z,102041.62
2018-11-20T22:43:30.268Z,102044.26
2018-11-20T22:46:16.497Z,102043.66
2018-11-20T22:49:02.797Z,102043.46
2018-11-20T22:51:49.204Z,102041.58
2018-11-20T22:54:35.576Z,102046.58
2018-11-20T22:57:13.434Z,102049.82
2018-11-20T23:00:03.809Z,102050.11
2018-11-20T23:02:54.472Z,102050.90
2018-11-20T23:05:39.839Z,102048.14
2018-11-20T23:08:08.181Z,102049.41
2018-11-20T23:10:36.537Z,102045.05
2018-11-20T23:13:05.380Z,102054.81
2018-11-20T23:15:33.770Z,102043.97
2018-11-20T23:18:02.111Z,102048.58
2018-11-20T23:20:30.448Z,102061.77
2018-11-20T23:22:58.817Z,102053.50
2018-11-20T23:25:27.154Z,102055.97
2018-11-20T23:27:55.522Z,102049.45
2018-11-20T23:30:23.864Z,102054.97
2018-11-20T23:32:52.238Z,102053.17
2018-11-20T23:35:20.574Z,102046.28
2018-11-20T23:37:48.940Z,102041.05
2018-11-20T23:40:17.282Z,102049.92
2018-11-20T23:42:45.649Z,102051.96
2018-11-20T23:45:14.701Z,102060.52
2018-11-20T23:47:43.065Z,102050.59
2018-11-20T23:50:13.102Z,102059.92
2018-11-20T23:52:41.473Z,102063.39
2018-11-20T23:55:12.324Z,102064.16
2018-11-20T23:57:40.730Z,102067.11
